Time;durP1;ratioP1;P1;durP2;ratioP2;P2;SDS_P1;SDS_P2;PMS_P1;PMS_P2;Temp;Humidity;BMP_temperature;BMP_pressure;BME280_temperature;BME280_humidity;BME280_pressure;Samples;Min_cycle;Max_cycle;Signal;HPM_P1;HPM_P2
2023/01/03 00:00:37;;;;;;;2.08;1.30;;;;;;;9.65;68.93;101783.53;4198517;28;20064;-65
2023/01/03 00:02:42;;;;;;;3.13;1.40;;;;;;;9.61;68.91;101786.84;4197135;28;20040;-66
2023/01/03 00:04:44;;;;;;;2.13;1.40;;;;;;;9.57;69.14;101788.41;4194984;28;20063;-66
2023/01/03 00:06:52;;;;;;;1.40;1.15;;;;;;;9.52;69.34;101789.97;4189745;28;20048;-65
2023/01/03 00:08:58;;;;;;;1.20;1.05;;;;;;;9.51;69.46;101797.69;4198110;28;20074;-65
2023/01/03 00:11:01;;;;;;;0.80;0.80;;;;;;;9.38;69.28;101797.16;4198083;28;20465;-65
2023/01/03 00:13:03;;;;;;;2.00;1.27;;;;;;;9.34;69.65;101797.88;4198061;28;20044;-65
2023/01/03 00:15:06;;;;;;;3.13;1.33;;;;;;;9.39;69.42;101798.94;4197600;28;20045;-65
2023/01/03 00:17:11;;;;;;;1.65;1.30;;;;;;;9.37;69.27;101805.78;4198045;28;20395;-65
2023/01/03 00:19:15;;;;;;;1.38;1.20;;;;;;;9.37;69.44;101815.28;4195604;28;20040;-65
2023/01/03 00:21:18;;;;;;;2.75;1.50;;;;;;;9.34;70.16;101805.66;4196760;28;20070;-65
2023/01/03 00:23:21;;;;;;;5.93;1.42;;;;;;;9.30;70.04;101801.19;4196059;28;20044;-65
2023/01/03 00:25:24;;;;;;;2.92;1.40;;;;;;;9.33;69.93;101801.31;4180082;28;20072;-65
2023/01/03 00:27:27;;;;;;;2.83;1.50;;;;;;;9.31;69.75;101800.34;4198068;28;20037;-66
2023/01/03 00:29:31;;;;;;;1.88;1.23;;;;;;;9.29;70.00;101798.50;4197472;28;20148;-66
2023/01/03 00:31:35;;;;;;;2.03;1.13;;;;;;;9.21;69.77;101803.38;4196838;28;20383;-65
2023/01/03 00:33:40;;;;;;;5.20;1.52;;;;;;;9.14;70.53;101794.47;4195512;28;20033;-66
2023/01/03 00:35:44;;;;;;;2.40;1.65;;;;;;;9.09;70.27;101794.25;4197924;28;20090;-65
2023/01/03 00:37:46;;;;;;;1.48;1.08;;;;;;;8.96;70.38;101794.56;4196860;28;20041;-65
2023/01/03 00:39:49;;;;;;;1.30;1.20;;;;;;;8.87;70.76;101797.66;4196662;28;20048;-65
2023/01/03 00:41:53;;;;;;;2.70;1.30;;;;;;;8.85;71.12;101790.66;4197623;28;20052;-65
2023/01/03 00:43:56;;;;;;;2.05;1.20;;;;;;;8.88;71.02;101791.66;4196660;28;20049;-65
2023/01/03 00:46:00;;;;;;;2.03;1.50;;;;;;;8.86;71.05;101784.63;4196486;28;20082;-65
2023/01/03 00:48:02;;;;;;;2.17;1.73;;;;;;;8.85;71.26;101791.53;4196238;28;20064;-65
2023/01/03 00:50:06;;;;;;;2.97;1.50;;;;;;;8.85;71.19;101791.53;4197405;28;20051;-65
2023/01/03 00:52:10;;;;;;;2.05;1.42;;;;;;;8.91;71.04;101798.69;4196316;28;20477;-65
2023/01/03 00:54:14;;;;;;;1.23;1.13;;;;;;;8.89;71.12;101797.72;4207737;28;20514;-65
2023/01/03 00:56:20;;;;;;;1.75;1.55;;;;;;;8.92;71.06;101797.84;4175216;28;20041;-65
2023/01/03 00:58:23;;;;;;;2.28;1.40;;;;;;;8.92;71.14;101795.25;4196030;28;20040;-65
2023/01/03 01:00:26;;;;;;;2.60;1.42;;;;;;;8.93;70.96;101801.34;4196094;28;20040;-65
2023/01/03 01:02:28;;;;;;;3.35;1.45;;;;;;;8.95;71.01;101795.41;4195913;28;20041;-65
2023/01/03 01:04:32;;;;;;;2.25;1.40;;;;;;;8.94;71.21;101811.78;4195328;28;20471;-65
2023/01/03 01:06:39;;;;;;;3.00;1.70;;;;;;;8.90;71.19;101813.34;4197340;28;20046;-65
2023/01/03 01:08:45;;;;;;;4.13;1.48;;;;;;;8.91;70.91;101803.88;4196026;28;20041;-64
2023/01/03 01:11:01;;;;;;;3.70;1.90;;;;;;;8.92;71.21;101800.44;4195902;28;20044;-65
2023/01/03 01:13:04;;;;;;;6.80;1.90;;;;;;;8.89;71.25;101801.22;4195223;28;20075;-64
2023/01/03 01:15:08;;;;;;;1.70;1.38;;;;;;;8.95;70.75;101798.00;4178938;28;20045;-64
2023/01/03 01:17:11;;;;;;;4.93;1.42;;;;;;;9.03;70.76;101803.50;4195813;28;20061;-65
2023/01/03 01:19:13;;;;;;;2.05;1.60;;;;;;;9.09;70.60;101799.44;4196957;28;20032;-65
2023/01/03 01:21:19;;;;;;;5.03;1.70;;;;;;;9.11;70.35;101799.50;4197319;28;20095;-65
2023/01/03 01:23:22;;;;;;;2.33;1.30;;;;;;;9.09;70.62;101804.63;4195352;28;20066;-65
2023/01/03 01:25:29;;;;;;;4.35;1.63;;;;;;;9.09;70.13;101807.22;4195967;28;20036;-65
2023/01/03 01:27:32;;;;;;;2.33;1.55;;;;;;;9.06;70.69;101814.00;4190836;28;20490;-65
2023/01/03 01:29:36;;;;;;;3.35;1.42;;;;;;;9.08;70.03;101828.81;4195993;28;20039;-65
2023/01/03 01:31:41;;;;;;;4.30;1.65;;;;;;;9.07;70.25;101828.75;4197545;28;20041;-65
2023/01/03 01:33:44;;;;;;;1.80;1.33;;;;;;;9.01;70.25;101826.78;4194959;28;20105;-65
2023/01/03 01:35:48;;;;;;;2.70;1.48;;;;;;;8.98;70.28;101836.13;4195844;28;20279;-65
2023/01/03 01:37:50;;;;;;;1.75;1.50;;;;;;;8.97;70.32;101830.06;4179376;28;20091;-66
2023/01/03 01:39:53;;;;;;;2.75;1.40;;;;;;;8.95;70.81;101831.72;4178799;28;20465;-65
2023/01/03 01:44:41;;;;;;;;;;;;;;;8.74;70.95;101835.13;4196688;28;20471;-65
2023/01/03 01:46:44;;;;;;;2.40;1.60;;;;;;;8.73;70.89;101833.38;4197392;28;19925;-65
2023/01/03 01:48:51;;;;;;;2.42;1.42;;;;;;;8.78;71.13;101836.16;4196987;28;20153;-65
2023/01/03 01:50:56;;;;;;;3.03;1.80;;;;;;;8.76;71.00;101835.22;4195682;28;20391;-65
2023/01/03 01:53:00;;;;;;;;;;;;;;;8.68;71.18;101834.88;4197268;28;20032;-65
2023/01/03 01:55:06;;;;;;;4.18;2.20;;;;;;;8.71;71.16;101835.00;4193079;28;19932;-65
2023/01/03 01:57:16;;;;;;;2.85;1.98;;;;;;;8.73;71.13;101837.66;4196834;28;20048;-66
2023/01/03 01:59:19;;;;;;;5.20;3.10;;;;;;;8.70;70.78;101841.03;4195444;28;20142;-65
2023/01/03 02:01:23;;;;;;;4.50;2.17;;;;;;;8.71;71.22;101841.91;4196882;28;20094;-65
2023/01/03 02:03:27;;;;;;;2.97;1.83;;;;;;;8.68;71.31;101845.22;4193211;28;20454;-66
2023/01/03 02:05:32;;;;;;;3.40;1.90;;;;;;;8.67;71.19;101840.91;4196313;28;20127;-66
2023/01/03 02:07:37;;;;;;;2.90;1.73;;;;;;;8.60;71.42;101844.03;4196355;28;20114;-65
2023/01/03 02:09:39;;;;;;;3.88;2.30;;;;;;;8.54;71.25;101848.91;4195560;28;20082;-65
2023/01/03 02:13:04;;;;;;;2.83;2.00;;;;;;;8.55;71.43;101848.09;4189486;28;20061;-65
2023/01/03 02:14:45;;;;;;;4.25;1.98;;;;;;;8.53;71.43;101845.44;4190394;28;20291;-65
2023/01/03 02:16:59;;;;;;;5.00;1.90;;;;;;;8.53;71.53;101839.38;4178853;28;20106;-65
2023/01/03 02:19:18;;;;;;;2.58;1.80;;;;;;;8.55;71.42;101850.69;4195536;28;20060;-65
2023/01/03 02:21:53;;;;;;;3.33;2.03;;;;;;;8.52;71.51;101842.78;4195591;28;20118;-65
2023/01/03 02:24:34;;;;;;;3.83;2.33;;;;;;;8.49;71.46;101845.25;4193543;28;20032;-65
2023/01/03 02:26:48;;;;;;;3.53;2.20;;;;;;;8.43;71.69;101851.00;4184465;28;20044;-65
2023/01/03 02:29:24;;;;;;;3.88;2.35;;;;;;;8.41;71.64;101846.56;4190110;28;20047;-65
2023/01/03 02:31:37;;;;;;;2.70;2.08;;;;;;;8.39;71.78;101843.91;4191618;28;20051;-65
2023/01/03 02:33:47;;;;;;;3.95;2.20;;;;;;;8.35;71.84;101842.88;4195694;28;20044;-65
2023/01/03 02:36:00;;;;;;;3.97;2.25;;;;;;;8.33;71.88;101847.09;4195363;28;20049;-65
2023/01/03 02:38:12;;;;;;;5.30;2.47;;;;;;;8.32;71.69;101834.97;4196247;28;20071;-65
2023/01/03 02:40:22;;;;;;;3.00;2.20;;;;;;;8.32;71.96;101840.16;4187792;28;20044;-65
2023/01/03 02:45:02;;;;;;;3.40;2.80;;;;;;;8.29;72.20;101837.41;4190606;28;20079;-65
2023/01/03 02:47:09;;;;;;;6.63;2.70;;;;;;;8.27;72.19;101839.06;4195427;28;20517;-65
2023/01/03 02:49:19;;;;;;;3.22;1.98;;;;;;;8.26;72.08;101841.56;4196166;28;20110;-66
2023/01/03 02:51:28;;;;;;;4.35;2.10;;;;;;;8.21;71.78;101831.88;4196513;28;20044;-65
2023/01/03 02:53:36;;;;;;;3.53;2.35;;;;;;;8.17;71.77;101829.09;4197563;28;20044;-65
2023/01/03 02:55:40;;;;;;;3.35;2.30;;;;;;;8.12;72.04;101835.75;4198342;28;20036;-65
2023/01/03 02:57:49;;;;;;;4.00;2.17;;;;;;;8.10;72.03;101839.97;4199221;28;20086;-65
2023/01/03 02:59:55;;;;;;;5.95;2.55;;;;;;;8.11;71.99;101841.75;4192825;28;20115;-65
2023/01/03 03:02:00;;;;;;;5.03;2.20;;;;;;;8.14;71.93;101836.72;4199208;28;20047;-65
2023/01/03 03:04:06;;;;;;;5.00;2.80;;;;;;;8.11;71.96;101834.88;4197079;28;20036;-66
2023/01/03 03:06:17;;;;;;;3.97;2.03;;;;;;;8.11;71.79;101839.16;4212387;28;20055;-65
2023/01/03 03:08:20;;;;;;;3.42;2.10;;;;;;;8.03;71.74;101842.28;4196833;28;20050;-65
2023/01/03 03:15:12;;;;;;;3.53;2.58;;;;;;;7.96;72.00;101847.13;4186601;28;20517;-65
2023/01/03 03:17:19;;;;;;;5.45;2.60;;;;;;;7.97;72.40;101854.03;4198905;28;20055;-65
2023/01/03 03:26:42;;;;;;;3.25;2.08;;;;;;;7.93;72.70;101852.13;4197678;28;20529;-65
2023/01/03 03:28:49;;;;;;;4.18;2.40;;;;;;;7.98;72.84;101858.41;4199082;28;20456;-65
2023/01/03 03:30:56;;;;;;;3.53;1.95;;;;;;;7.99;72.78;101855.91;4199153;28;20070;-65
2023/01/03 03:33:04;;;;;;;3.38;1.83;;;;;;;8.02;72.78;101862.94;4199089;28;20032;-65
2023/01/03 03:35:14;;;;;;;3.38;2.13;;;;;;;8.04;72.77;101867.38;4198458;28;20453;-65
2023/01/03 03:37:20;;;;;;;5.43;2.03;;;;;;;8.07;72.50;101865.72;4199041;28;20036;-65
2023/01/03 03:46:49;;;;;;;3.00;2.17;;;;;;;7.96;73.07;101873.00;4196693;28;20033;-65
2023/01/03 03:51:23;;;;;;;3.45;2.10;;;;;;;7.92;73.13;101876.25;4189220;28;20052;-65
2023/01/03 03:53:32;;;;;;;3.00;2.03;;;;;;;7.94;73.23;101874.63;4197830;28;20037;-65
2023/01/03 03:55:41;;;;;;;5.70;2.30;;;;;;;7.94;73.54;101877.22;4193234;28;20675;-65
2023/01/03 03:57:47;;;;;;;3.90;2.10;;;;;;;7.93;73.69;101878.91;4198384;28;20463;-65
2023/01/03 03:59:55;;;;;;;2.20;1.63;;;;;;;7.93;73.30;101871.16;4194561;28;20089;-65
2023/01/03 04:02:00;;;;;;;2.92;1.80;;;;;;;7.96;73.53;101873.88;4197092;28;20094;-65
2023/01/03 04:04:08;;;;;;;2.47;1.50;;;;;;;7.94;73.48;101875.50;4195042;28;20067;-65
2023/01/03 04:06:17;;;;;;;3.22;2.13;;;;;;;7.88;73.72;101874.34;4197744;28;20054;-65
2023/01/03 04:08:21;;;;;;;3.30;1.98;;;;;;;7.93;73.63;101872.84;4195606;28;20036;-65
2023/01/03 04:10:24;;;;;;;4.47;1.90;;;;;;;7.95;73.72;101871.22;4193985;28;20383;-65
2023/01/03 04:12:28;;;;;;;4.10;1.70;;;;;;;7.98;73.59;101871.38;4196325;28;20043;-65
2023/01/03 04:14:31;;;;;;;2.55;1.65;;;;;;;8.02;73.29;101879.34;4195876;28;20086;-65
2023/01/03 04:16:36;;;;;;;6.65;1.92;;;;;;;8.06;73.15;101876.91;4196955;28;20036;-65
2023/01/03 04:18:39;;;;;;;;;;;;;;;7.97;73.45;101882.53;4192321;28;20411;-65
2023/01/03 04:20:42;;;;;;;3.42;1.90;;;;;;;7.97;73.59;101875.66;4197741;28;20393;-65
2023/01/03 04:22:45;;;;;;;3.10;1.88;;;;;;;8.00;73.48;101881.00;4197950;28;20071;-65
2023/01/03 04:24:49;;;;;;;3.63;1.70;;;;;;;7.99;73.68;101892.16;4194992;28;20071;-65
2023/01/03 04:26:52;;;;;;;3.88;1.70;;;;;;;7.88;74.11;101882.97;4191181;28;20094;-65
2023/01/03 04:28:54;;;;;;;2.92;1.70;;;;;;;7.92;74.31;101889.22;4196695;28;20195;-65
2023/01/03 04:30:57;;;;;;;3.60;1.90;;;;;;;7.99;73.87;101883.50;4194440;28;20508;-65
2023/01/03 04:33:03;;;;;;;4.65;1.55;;;;;;;7.98;73.96;101882.59;4196596;28;20048;-65
2023/01/03 04:35:07;;;;;;;2.45;1.73;;;;;;;7.89;74.21;101889.94;4197273;28;20094;-65
2023/01/03 04:37:10;;;;;;;4.60;1.70;;;;;;;7.90;74.16;101883.03;4196445;28;20040;-65
2023/01/03 04:39:13;;;;;;;5.05;2.05;;;;;;;7.91;74.11;101890.88;4195495;28;20486;-65
2023/01/03 04:41:17;;;;;;;4.07;2.15;;;;;;;7.96;74.29;101892.00;4197708;28;20040;-65
2023/01/03 04:45:40;;;;;;;3.80;2.05;;;;;;;7.99;73.67;101893.88;4195909;28;20066;-65
2023/01/03 04:47:43;;;;;;;3.65;1.73;;;;;;;8.03;74.05;101891.50;4195695;28;20033;-66
2023/01/03 04:49:47;;;;;;;4.45;2.00;;;;;;;8.06;73.51;101895.03;4196696;28;20413;-66
2023/01/03 04:51:50;;;;;;;2.55;1.73;;;;;;;7.98;73.74;101890.38;4195239;28;20131;-66
2023/01/03 04:53:53;;;;;;;5.60;1.67;;;;;;;7.90;74.30;101894.31;4194357;28;20107;-66
2023/01/03 04:55:56;;;;;;;3.05;1.73;;;;;;;7.80;74.20;101894.69;4194396;28;20542;-66
2023/01/03 04:58:01;;;;;;;3.22;1.80;;;;;;;7.80;74.41;101892.97;4179537;28;20037;-66
2023/01/03 05:00:05;;;;;;;4.43;1.73;;;;;;;7.69;74.17;101897.63;4196122;28;20563;-67
2023/01/03 05:02:08;;;;;;;3.20;1.75;;;;;;;7.72;74.33;101894.28;4197747;28;20430;-67
2023/01/03 05:04:11;;;;;;;4.90;1.70;;;;;;;7.77;74.69;101897.09;4196415;28;20037;-67
2023/01/03 05:06:14;;;;;;;3.63;1.80;;;;;;;7.80;74.40;101889.50;4196096;28;20041;-67
2023/01/03 05:08:17;;;;;;;5.63;2.38;;;;;;;7.76;74.15;101890.16;4195834;28;20510;-67
2023/01/03 05:10:20;;;;;;;2.25;1.63;;;;;;;7.71;74.31;101892.53;4192923;28;20029;-67
2023/01/03 05:12:22;;;;;;;4.20;1.55;;;;;;;7.73;74.66;101892.59;4196701;28;20097;-67
2023/01/03 05:14:27;;;;;;;4.85;1.90;;;;;;;7.69;74.41;101887.28;4196396;28;20059;-67
2023/01/03 05:16:29;;;;;;;5.13;1.80;;;;;;;7.69;74.59;101892.47;4196368;28;20052;-67
2023/01/03 05:18:33;;;;;;;3.88;2.35;;;;;;;7.68;74.83;101887.19;4191734;28;20518;-68
2023/01/03 05:27:38;;;;;;;5.38;1.85;;;;;;;7.50;75.21;101893.25;4189817;28;20055;-66
2023/01/03 05:29:43;;;;;;;2.83;1.92;;;;;;;7.52;75.35;101901.09;4189717;28;20041;-66
2023/01/03 05:31:46;;;;;;;4.70;2.15;;;;;;;7.53;75.27;101897.66;4196805;28;20502;-66
2023/01/03 05:33:49;;;;;;;6.25;1.80;;;;;;;7.53;75.06;101902.84;4178489;28;20045;-66
2023/01/03 05:35:53;;;;;;;3.25;1.70;;;;;;;7.58;75.13;101901.38;4195440;28;20040;-67
2023/01/03 05:37:57;;;;;;;;;;;;;;;7.48;75.28;101910.38;4195920;28;20036;-67
2023/01/03 05:40:05;;;;;;;6.60;1.90;;;;;;;7.51;75.10;101905.34;4177959;28;20326;-66
2023/01/03 05:42:08;;;;;;;4.30;1.80;;;;;;;7.51;75.08;101909.66;4205706;28;20043;-66
2023/01/03 05:44:15;;;;;;;3.13;1.98;;;;;;;7.57;74.52;101911.66;4213062;28;20554;-67
2023/01/03 05:46:21;;;;;;;4.90;2.20;;;;;;;7.62;74.54;101908.50;4189914;28;20388;-67
2023/01/03 05:48:24;;;;;;;4.03;1.98;;;;;;;7.68;74.75;101913.97;4195796;28;20040;-67
2023/01/03 05:50:26;;;;;;;5.25;2.25;;;;;;;7.77;74.14;101905.78;4197099;28;20032;-67
2023/01/03 05:52:29;;;;;;;7.95;3.53;;;;;;;7.81;74.14;101914.56;4196928;28;20043;-66
2023/01/03 05:54:32;;;;;;;4.25;2.08;;;;;;;7.84;73.94;101906.94;4195068;28;20066;-67
2023/01/03 05:56:35;;;;;;;2.92;1.95;;;;;;;7.84;73.58;101904.34;4195123;28;20043;-67
2023/01/03 05:58:38;;;;;;;5.82;2.00;;;;;;;7.83;73.54;101908.66;4197023;28;20048;-67
2023/01/03 06:00:41;;;;;;;3.13;2.10;;;;;;;7.84;73.58;101909.53;4195707;28;20039;-67
2023/01/03 06:02:45;;;;;;;5.55;2.15;;;;;;;7.86;73.48;101907.91;4195823;28;20055;-67
2023/01/03 06:04:48;;;;;;;4.07;2.22;;;;;;;7.85;73.58;101907.00;4199479;28;20365;-66
2023/01/03 06:06:51;;;;;;;3.83;2.17;;;;;;;7.86;73.18;101913.09;4197154;28;20499;-67
2023/01/03 06:08:54;;;;;;;6.30;2.10;;;;;;;7.84;73.01;101913.03;4196974;28;20040;-67
2023/01/03 06:10:57;;;;;;;3.88;1.92;;;;;;;7.77;72.79;101916.13;4196733;28;20059;-67
2023/01/03 06:13:00;;;;;;;3.03;1.90;;;;;;;7.75;73.49;101920.31;4195156;28;20490;-66
2023/01/03 06:15:03;;;;;;;5.03;2.35;;;;;;;7.70;73.18;101911.47;4196383;28;20109;-67
2023/01/03 06:19:28;;;;;;;2.65;2.22;;;;;;;7.62;73.17;101916.25;4207712;28;20040;-67
2023/01/03 06:21:30;;;;;;;2.55;1.80;;;;;;;7.57;73.51;101924.59;4204787;28;20062;-67
2023/01/03 06:23:33;;;;;;;5.93;1.90;;;;;;;7.53;73.26;101928.72;4196427;28;20032;-66
2023/01/03 06:25:36;;;;;;;2.50;2.10;;;;;;;7.49;73.57;101926.78;4199134;28;20041;-66
2023/01/03 06:27:39;;;;;;;2.85;1.60;;;;;;;7.48;73.59;101925.91;4194870;28;20400;-67
2023/01/03 06:29:42;;;;;;;4.10;2.03;;;;;;;7.47;73.40;101920.66;4198509;28;20036;-67
2023/01/03 06:31:45;;;;;;;8.10;2.35;;;;;;;7.47;73.88;101933.59;4189024;28;20033;-67
2023/01/03 06:33:49;;;;;;;5.07;1.75;;;;;;;7.46;73.70;101937.88;4199470;28;20044;-67
2023/01/03 06:35:53;;;;;;;2.67;1.98;;;;;;;7.48;73.58;101935.38;4199898;28;20127;-66
2023/01/03 06:37:57;;;;;;;4.10;2.00;;;;;;;7.42;73.64;101937.66;4198452;28;20045;-67
2023/01/03 06:40:00;;;;;;;2.40;2.00;;;;;;;7.40;73.71;101942.72;4198608;28;20052;-66
2023/01/03 06:44:23;;;;;;;3.42;2.55;;;;;;;7.31;73.91;101937.09;4193537;28;20120;-67
2023/01/03 06:53:34;;;;;;;4.55;2.42;;;;;;;7.19;73.71;101941.66;4182667;28;20086;-67
2023/01/03 06:55:37;;;;;;;2.80;2.20;;;;;;;7.18;73.61;101930.41;4194954;28;20044;-67
2023/01/03 06:57:40;;;;;;;3.00;2.17;;;;;;;7.17;73.73;101936.41;4193315;28;20040;-66
2023/01/03 06:59:43;;;;;;;4.00;2.28;;;;;;;7.14;73.90;101934.53;4199436;28;20387;-66
2023/01/03 07:01:47;;;;;;;3.78;2.10;;;;;;;7.16;73.60;101942.38;4195505;28;20029;-66
2023/01/03 07:03:50;;;;;;;4.47;2.40;;;;;;;7.11;74.16;101938.63;4189484;28;20517;-67
2023/01/03 07:05:53;;;;;;;2.90;2.08;;;;;;;7.11;74.31;101941.22;4199335;28;20452;-66
2023/01/03 07:07:57;;;;;;;2.65;1.95;;;;;;;7.11;73.81;101949.00;4199022;28;20040;-67
2023/01/03 07:10:01;;;;;;;3.35;2.58;;;;;;;7.08;73.00;101947.16;4198162;28;20051;-67
2023/01/03 07:14:21;;;;;;;3.92;2.78;;;;;;;6.95;73.37;101953.38;4196179;28;20052;-66
2023/01/03 07:16:25;;;;;;;4.03;2.35;;;;;;;6.90;73.63;101954.81;4198549;28;20040;-66
2023/01/03 07:18:28;;;;;;;5.07;2.42;;;;;;;6.90;73.30;101952.22;4198024;28;20079;-66
2023/01/03 07:20:31;;;;;;;8.60;4.63;;;;;;;6.95;73.05;101962.81;4204073;28;20516;-67
2023/01/03 07:22:34;;;;;;;11.13;6.10;;;;;;;6.91;73.04;101972.09;4195834;28;20413;-66
2023/01/03 07:24:38;;;;;;;6.35;4.13;;;;;;;6.90;73.24;101965.16;4179404;28;20051;-66
2023/01/03 07:26:41;;;;;;;5.80;3.72;;;;;;;6.87;73.61;101964.09;4198548;28;20563;-66
2023/01/03 07:28:44;;;;;;;7.55;3.55;;;;;;;6.85;74.03;101969.19;4197259;28;20029;-66
2023/01/03 07:30:47;;;;;;;5.30;3.50;;;;;;;6.88;73.93;101971.03;4197668;28;20514;-66
2023/01/03 07:32:50;;;;;;;4.68;3.25;;;;;;;6.92;74.31;101978.16;4198981;28;20049;-67
2023/01/03 07:34:54;;;;;;;9.63;4.07;;;;;;;6.94;73.67;101976.56;4196432;28;20062;-66
2023/01/03 07:36:57;;;;;;;7.07;4.25;;;;;;;6.94;73.67;101982.59;4199519;28;20041;-66
2023/01/03 07:38:59;;;;;;;7.72;3.95;;;;;;;6.94;73.66;101990.38;4191684;28;20036;-67
2023/01/03 07:41:06;;;;;;;6.55;3.75;;;;;;;6.92;74.33;101984.22;4174379;28;20044;-67
2023/01/03 07:45:32;;;;;;;5.72;3.40;;;;;;;6.94;74.17;101997.25;4195875;28;20040;-67
2023/01/03 07:47:35;;;;;;;3.58;2.90;;;;;;;6.96;74.24;101993.91;4207208;28;20033;-67
2023/01/03 07:49:38;;;;;;;5.70;3.58;;;;;;;6.92;74.23;101993.66;4203215;28;20482;-67
2023/01/03 07:51:40;;;;;;;6.40;3.95;;;;;;;6.95;74.31;102004.16;4202931;28;20522;-67
2023/01/03 07:53:44;;;;;;;5.43;3.70;;;;;;;6.94;74.62;102008.47;4207057;28;20075;-67
2023/01/03 07:55:47;;;;;;;4.28;3.13;;;;;;;6.93;74.57;102006.66;4193884;28;20041;-67
2023/01/03 07:57:51;;;;;;;5.30;2.92;;;;;;;6.94;74.37;102003.28;4200841;28;20043;-67
2023/01/03 07:59:53;;;;;;;5.35;2.83;;;;;;;6.95;74.79;101999.00;4209516;28;20044;-67
2023/01/03 08:01:56;;;;;;;5.32;3.30;;;;;;;6.94;74.37;102005.88;4201329;28;20473;-68
2023/01/03 08:03:59;;;;;;;12.70;4.25;;;;;;;7.20;76.81;101996.03;4196740;28;20048;-59
2023/01/03 08:06:04;;;;;;;6.78;3.10;;;;;;;7.89;79.82;102003.88;4195316;28;20045;-59
2023/01/03 08:08:07;;;;;;;5.05;3.13;;;;;;;8.25;77.86;101996.16;4200583;28;20039;-59
2023/01/03 08:14:53;;;;;;;4.65;2.65;;;;;;;8.76;73.31;102010.63;4199085;28;20052;-59
2023/01/03 08:16:55;;;;;;;3.33;2.22;;;;;;;8.83;72.52;102012.69;4202030;28;20041;-59
2023/01/03 08:18:58;;;;;;;4.13;2.80;;;;;;;8.83;71.92;102015.28;4195449;28;20036;-59
2023/01/03 08:21:01;;;;;;;4.53;2.88;;;;;;;8.74;71.13;102018.34;4201275;28;20048;-67
2023/01/03 08:23:04;;;;;;;3.67;2.80;;;;;;;8.46;70.36;102018.75;4199904;28;20044;-68
2023/01/03 08:25:08;;;;;;;3.65;2.60;;;;;;;8.17;70.73;102023.38;4195085;28;20105;-67
2023/01/03 08:27:10;;;;;;;5.25;3.00;;;;;;;7.91;71.29;102027.25;4193828;28;20040;-67
2023/01/03 08:29:13;;;;;;;5.20;3.22;;;;;;;7.72;71.80;102028.00;4178501;28;20070;-67
2023/01/03 08:31:20;;;;;;;4.85;3.80;;;;;;;7.56;72.24;102034.09;4179686;28;20281;-68
2023/01/03 08:33:26;;;;;;;5.70;3.22;;;;;;;7.45;71.99;102033.56;4198227;28;20116;-68
2023/01/03 08:35:34;;;;;;;6.60;4.20;;;;;;;7.34;72.37;102033.88;4204110;28;20040;-68
2023/01/03 08:37:37;;;;;;;7.50;4.03;;;;;;;7.27;72.95;102036.94;4199791;28;20091;-68
2023/01/03 08:39:48;;;;;;;6.97;3.42;;;;;;;7.21;73.15;102036.59;4201685;28;20445;-68
2023/01/03 08:41:57;;;;;;;5.78;4.18;;;;;;;7.16;73.83;102045.81;4198003;28;20046;-68
2023/01/03 08:44:01;;;;;;;5.35;3.75;;;;;;;7.08;73.64;102044.50;4196322;28;20090;-68
2023/01/03 08:46:07;;;;;;;;;;;;;;;6.92;74.15;102048.88;4194765;28;20044;-68
2023/01/03 08:48:11;;;;;;;7.00;4.60;;;;;;;6.91;74.04;102052.25;4210858;28;19920;-68
2023/01/03 08:50:14;;;;;;;6.03;3.90;;;;;;;6.94;73.98;102052.41;4199361;28;20033;-68
2023/01/03 08:52:17;;;;;;;7.72;4.32;;;;;;;6.94;74.43;102062.75;4205999;28;20440;-68
2023/01/03 08:54:20;;;;;;;8.73;5.10;;;;;;;6.99;74.17;102057.84;4191489;28;20041;-68
2023/01/03 08:56:23;;;;;;;7.30;4.63;;;;;;;6.96;73.92;102063.72;4196716;28;20036;-68
2023/01/03 08:58:26;;;;;;;6.85;4.45;;;;;;;6.96;74.43;102068.00;4193967;28;20498;-68
2023/01/03 09:00:29;;;;;;;6.97;4.50;;;;;;;6.96;74.16;102068.88;4197987;28;20492;-68
2023/01/03 09:02:33;;;;;;;8.73;5.85;;;;;;;6.95;74.49;102073.97;4199965;28;20033;-68
2023/01/03 09:04:38;;;;;;;7.43;4.80;;;;;;;6.94;74.44;102075.69;4208216;28;20046;-68
2023/01/03 09:06:41;;;;;;;8.55;5.63;;;;;;;6.88;74.21;102071.84;4195801;28;20457;-70
2023/01/03 09:08:44;;;;;;;8.55;5.18;;;;;;;6.91;74.38;102078.09;4202696;28;20055;-68
2023/01/03 09:10:47;;;;;;;10.35;5.50;;;;;;;6.95;74.29;102084.31;4198825;28;20131;-68
2023/01/03 09:12:50;;;;;;;8.25;5.30;;;;;;;7.01;74.48;102091.53;4205529;28;20043;-68
2023/01/03 09:14:54;;;;;;;15.50;8.20;;;;;;;7.13;74.44;102085.34;4200658;28;20098;-68
2023/01/03 09:16:57;;;;;;;10.65;6.47;;;;;;;7.23;73.93;102089.31;4190523;28;20470;-68
2023/01/03 09:19:01;;;;;;;8.02;5.50;;;;;;;7.22;73.92;102091.81;4187978;28;20040;-68
2023/01/03 09:21:07;;;;;;;8.75;5.45;;;;;;;7.25;74.42;102092.88;4199825;28;20047;-67
2023/01/03 09:23:10;;;;;;;10.18;5.30;;;;;;;7.30;74.40;102086.25;4194203;28;20462;-68
2023/01/03 09:25:13;;;;;;;9.13;6.07;;;;;;;7.32;74.78;102087.22;4196964;28;20086;-68
2023/01/03 09:27:15;;;;;;;7.45;4.53;;;;;;;7.37;75.23;102089.16;4195123;28;20040;-68
2023/01/03 09:29:18;;;;;;;8.68;5.95;;;;;;;7.42;74.96;102079.97;4199946;28;20039;-68
2023/01/03 09:31:21;;;;;;;11.00;7.07;;;;;;;7.60;74.42;102075.75;4203023;28;20519;-68
2023/01/03 09:33:25;;;;;;;8.45;5.72;;;;;;;7.58;74.39;102084.22;4201916;28;20143;-68
2023/01/03 09:35:27;;;;;;;7.88;5.47;;;;;;;7.58;74.79;102081.63;4198510;28;20041;-68
2023/01/03 09:37:32;;;;;;;8.35;5.60;;;;;;;7.62;74.78;102074.16;4193813;28;20051;-68
2023/01/03 09:39:35;;;;;;;7.47;5.20;;;;;;;7.62;74.64;102076.72;4205457;28;20089;-68
2023/01/03 09:41:39;;;;;;;8.75;5.20;;;;;;;7.63;75.18;102077.59;4202961;28;20494;-68
2023/01/03 09:43:45;;;;;;;9.55;6.10;;;;;;;7.64;75.01;102082.00;4190238;28;20033;-68
2023/01/03 09:45:55;;;;;;;9.40;6.40;;;;;;;7.67;75.08;102079.56;4191392;28;20040;-68
2023/01/03 09:47:59;;;;;;;9.88;5.15;;;;;;;7.57;75.20;102082.47;4192510;28;20044;-68
2023/01/03 09:50:03;;;;;;;8.38;6.40;;;;;;;7.61;75.29;102087.00;4195373;28;20046;-68
2023/01/03 10:05:01;;;;;;;9.95;6.47;;;;;;;7.92;75.07;102073.94;4196803;28;20064;-67
2023/01/03 10:07:14;;;;;;;13.32;5.95;;;;;;;7.95;74.75;102073.22;4195917;28;20036;-68
2023/01/03 10:09:27;;;;;;;10.10;5.18;;;;;;;8.04;74.83;102076.25;4197088;28;20036;-68
2023/01/03 10:11:41;;;;;;;8.43;4.63;;;;;;;8.10;74.47;102066.19;4193787;28;20139;-68
2023/01/03 10:13:58;;;;;;;10.90;6.78;;;;;;;8.23;74.48;102074.59;4183243;28;20032;-68
2023/01/03 10:16:08;;;;;;;8.60;5.57;;;;;;;8.14;74.85;102075.03;4189556;28;20049;-68
2023/01/03 10:18:24;;;;;;;8.15;4.82;;;;;;;8.16;74.37;102074.31;4198735;28;20040;-68
2023/01/03 10:20:41;;;;;;;7.45;5.28;;;;;;;8.23;74.24;102074.59;4184407;28;20098;-68
2023/01/03 10:22:45;;;;;;;7.97;5.25;;;;;;;8.28;74.68;102075.69;4190002;28;20667;-68
2023/01/03 10:24:55;;;;;;;8.23;4.47;;;;;;;8.30;74.45;102076.69;4200425;28;20513;-69
2023/01/03 10:27:07;;;;;;;8.20;5.25;;;;;;;8.37;74.68;102073.59;4182939;28;20072;-68
2023/01/03 10:29:12;;;;;;;9.63;4.82;;;;;;;8.42;74.59;102069.50;4185043;28;20059;-68
2023/01/03 10:31:36;;;;;;;8.40;4.80;;;;;;;8.46;74.33;102068.88;4183537;28;20072;-68
2023/01/03 10:33:41;;;;;;;8.45;4.82;;;;;;;8.48;74.51;102071.53;4188342;28;20032;-68
2023/01/03 10:35:44;;;;;;;7.85;4.38;;;;;;;8.56;74.21;102055.53;4189983;28;20046;-69
2023/01/03 10:37:50;;;;;;;7.25;4.45;;;;;;;8.63;73.87;102050.66;4183682;28;20080;-68
2023/01/03 10:40:01;;;;;;;8.68;4.57;;;;;;;8.64;74.04;102055.03;4188568;28;20556;-68
2023/01/03 10:42:06;;;;;;;6.47;4.05;;;;;;;8.62;73.58;102054.06;4181597;28;20079;-68
2023/01/03 10:44:23;;;;;;;5.55;4.30;;;;;;;8.60;73.40;102061.78;4180225;28;20490;-68
2023/01/03 10:46:26;;;;;;;6.43;4.10;;;;;;;8.60;73.36;102061.78;4188649;28;20123;-68
2023/01/03 10:48:39;;;;;;;5.63;3.70;;;;;;;8.61;73.47;102058.34;4184601;28;20033;-68
2023/01/03 10:51:05;;;;;;;4.82;3.40;;;;;;;8.61;73.48;102060.94;4189223;28;20360;-68
2023/01/03 10:53:11;;;;;;;5.35;3.60;;;;;;;8.63;73.10;102050.66;4184206;28;20052;-68
2023/01/03 10:55:16;;;;;;;4.70;3.10;;;;;;;8.67;73.08;102053.50;4185379;28;20049;-68
2023/01/03 10:57:42;;;;;;;6.00;3.75;;;;;;;8.74;73.13;102050.34;4192216;28;20040;-68
2023/01/03 10:59:49;;;;;;;;;;;;;;;8.70;73.08;102052.72;4211176;28;20057;-68
2023/01/03 11:02:01;;;;;;;6.05;3.22;;;;;;;8.79;72.95;102049.66;4183223;28;19921;-68